createdAt,value
2019-03-18T00:00:13.919Z,4.82
2019-03-18T00:02:42.163Z,4.77
2019-03-18T00:05:10.608Z,4.72
2019-03-18T00:07:38.842Z,4.71
2019-03-18T00:10:08.127Z,4.71
2019-03-18T00:12:36.386Z,4.74
2019-03-18T00:15:06.802Z,4.74
2019-03-18T00:17:35.064Z,4.79
2019-03-18T00:20:03.678Z,4.83
2019-03-18T00:22:32.150Z,4.83
2019-03-18T00:25:00.401Z,4.84
2019-03-18T00:27:28.673Z,4.90
2019-03-18T00:29:56.918Z,4.95
2019-03-18T00:32:25.202Z,4.95
2019-03-18T00:34:53.454Z,4.95
2019-03-18T00:37:21.836Z,4.95
2019-03-18T00:39:50.082Z,4.97
2019-03-18T00:42:18.472Z,4.97
2019-03-18T00:44:46.726Z,5.00
2019-03-18T00:47:15.027Z,4.98
2019-03-18T00:49:43.294Z,4.94
2019-03-18T00:52:11.571Z,4.89
2019-03-18T00:54:39.952Z,4.94
2019-03-18T00:57:08.239Z,4.90
2019-03-18T00:59:36.531Z,4.87
2019-03-18T01:02:04.954Z,4.88
2019-03-18T01:04:33.279Z,4.94
2019-03-18T01:07:01.538Z,4.92
2019-03-18T01:09:29.911Z,4.89
2019-03-18T01:11:58.273Z,4.91
2019-03-18T01:14:26.509Z,4.92
2019-03-18T01:16:54.777Z,4.94
2019-03-18T01:19:23.037Z,4.93
2019-03-18T01:21:51.300Z,4.98
2019-03-18T01:24:19.546Z,5.02
2019-03-18T01:26:47.918Z,5.00
2019-03-18T01:29:16.170Z,5.00
2019-03-18T01:31:44.453Z,4.95
2019-03-18T01:34:12.743Z,4.93
2019-03-18T01:36:41.031Z,4.95
2019-03-18T01:39:09.363Z,4.91
2019-03-18T01:41:37.633Z,4.90
2019-03-18T01:44:06.008Z,4.91
2019-03-18T01:46:34.741Z,4.87
2019-03-18T01:49:03.029Z,4.84
2019-03-18T01:51:31.282Z,4.81
2019-03-18T01:53:59.527Z,4.88
2019-03-18T01:56:27.903Z,4.84
2019-03-18T01:58:56.196Z,4.84
2019-03-18T02:01:24.472Z,4.87
2019-03-18T02:03:52.741Z,4.95
2019-03-18T02:06:20.980Z,4.92
2019-03-18T02:08:49.245Z,4.96
2019-03-18T02:11:17.514Z,5.00
2019-03-18T02:13:45.812Z,5.00
2019-03-18T02:16:14.051Z,5.07
2019-03-18T02:18:42.321Z,5.08
2019-03-18T02:21:10.586Z,5.06
2019-03-18T02:23:38.966Z,5.06
2019-03-18T02:26:07.233Z,5.07
2019-03-18T02:28:35.558Z,5.04
2019-03-18T02:31:03.843Z,5.02
2019-03-18T02:33:32.174Z,5.05
2019-03-18T02:36:00.449Z,5.02
2019-03-18T02:38:28.746Z,4.98
2019-03-18T02:40:57.035Z,5.00
2019-03-18T02:43:25.281Z,4.97
2019-03-18T02:46:09.490Z,4.95
2019-03-18T02:48:24.491Z,4.92
2019-03-18T02:50:52.730Z,4.88
2019-03-18T02:53:21.046Z,4.90
2019-03-18T02:55:49.288Z,4.82
2019-03-18T02:58:17.626Z,4.78
2019-03-18T03:00:45.891Z,4.78
2019-03-18T03:03:14.317Z,4.73
2019-03-18T03:05:42.538Z,4.76
2019-03-18T03:08:10.787Z,4.72
2019-03-18T03:10:39.111Z,4.72
2019-03-18T03:13:07.412Z,4.72
2019-03-18T03:15:35.656Z,4.69
2019-03-18T03:18:03.960Z,4.67
2019-03-18T03:20:32.214Z,4.67
2019-03-18T03:23:00.484Z,4.64
2019-03-18T03:25:28.769Z,4.64
2019-03-18T03:27:57.286Z,4.64
2019-03-18T03:30:25.600Z,4.62
2019-03-18T03:32:53.872Z,4.59
2019-03-18T03:35:22.191Z,4.59
2019-03-18T03:37:50.470Z,4.60
2019-03-18T03:40:19.257Z,4.60
2019-03-18T03:42:47.529Z,4.62
2019-03-18T03:45:15.964Z,4.61
2019-03-18T03:47:44.240Z,4.60
2019-03-18T03:50:16.863Z,4.63
2019-03-18T03:52:45.105Z,4.58
2019-03-18T03:55:14.050Z,4.59
2019-03-18T03:57:42.335Z,4.60
2019-03-18T04:00:13.068Z,4.60
2019-03-18T04:02:41.407Z,4.56
2019-03-18T04:05:09.657Z,4.55
2019-03-18T04:07:37.989Z,4.54
2019-03-18T04:10:08.935Z,4.51
2019-03-18T04:12:37.203Z,4.53
2019-03-18T04:15:10.486Z,4.58
2019-03-18T04:17:38.911Z,4.54
2019-03-18T04:20:10.153Z,4.49
2019-03-18T04:22:38.559Z,4.47
2019-03-18T04:25:07.887Z,4.42
2019-03-18T04:27:36.188Z,4.37
2019-03-18T04:30:09.209Z,4.37
2019-03-18T04:32:37.509Z,4.33
2019-03-18T04:35:06.321Z,4.28
2019-03-18T04:37:34.612Z,4.27
2019-03-18T04:40:02.875Z,4.28
2019-03-18T04:42:31.263Z,4.27
2019-03-18T04:44:59.545Z,4.24
2019-03-18T04:47:27.780Z,4.24
2019-03-18T04:49:56.104Z,4.21
2019-03-18T04:52:24.420Z,4.24
2019-03-18T04:54:52.684Z,4.20
2019-03-18T04:57:20.964Z,4.17
2019-03-18T04:59:49.259Z,4.15
2019-03-18T05:02:18.317Z,4.16
2019-03-18T05:04:46.620Z,4.14
2019-03-18T05:07:14.884Z,4.11
2019-03-18T05:09:43.137Z,4.16
2019-03-18T05:12:11.522Z,4.15
2019-03-18T05:14:39.810Z,4.15
2019-03-18T05:17:08.092Z,4.15
2019-03-18T05:19:36.353Z,4.14
2019-03-18T05:22:04.604Z,4.13
2019-03-18T05:24:32.870Z,4.11
2019-03-18T05:27:01.109Z,4.11
2019-03-18T05:29:29.527Z,4.12
2019-03-18T05:31:57.771Z,4.09
2019-03-18T05:34:26.063Z,4.08
2019-03-18T05:36:54.379Z,4.05
2019-03-18T05:39:22.642Z,4.03
2019-03-18T05:41:50.934Z,4.06
2019-03-18T05:44:19.214Z,4.12
2019-03-18T05:46:47.457Z,4.10
2019-03-18T05:49:15.722Z,4.10
2019-03-18T05:51:44.589Z,4.09
2019-03-18T05:54:12.848Z,4.15
2019-03-18T05:56:41.126Z,4.13
2019-03-18T05:59:09.394Z,4.16
2019-03-18T06:01:42.109Z,4.16
2019-03-18T06:04:10.311Z,4.13
2019-03-18T06:06:38.589Z,4.08
2019-03-18T06:09:07.017Z,4.08
2019-03-18T06:11:35.288Z,4.09
2019-03-18T06:14:03.626Z,4.08
2019-03-18T06:16:31.948Z,4.09
2019-03-18T06:19:00.464Z,4.15
2019-03-18T06:21:28.796Z,4.16
2019-03-18T06:23:58.109Z,4.17
2019-03-18T06:26:27.180Z,4.20
2019-03-18T06:28:55.526Z,4.24
2019-03-18T06:31:23.723Z,4.30
2019-03-18T06:33:52.021Z,4.40
2019-03-18T06:36:21.912Z,4.50
2019-03-18T06:38:50.394Z,4.57
2019-03-18T06:41:18.669Z,4.65
2019-03-18T06:43:46.959Z,4.66
2019-03-18T06:46:15.401Z,4.69
2019-03-18T06:48:43.653Z,4.72
2019-03-18T06:51:11.975Z,4.73
2019-03-18T06:53:40.394Z,4.75
2019-03-18T06:56:08.612Z,4.75
2019-03-18T06:58:36.886Z,4.75
2019-03-18T07:01:05.186Z,4.73
2019-03-18T07:03:33.453Z,4.65
2019-03-18T07:06:01.714Z,4.64
2019-03-18T07:08:29.982Z,4.65
2019-03-18T07:10:58.288Z,4.65
2019-03-18T07:13:26.545Z,4.68
2019-03-18T07:15:54.798Z,4.72
2019-03-18T07:18:23.096Z,4.77
2019-03-18T07:20:51.344Z,4.82
2019-03-18T07:23:19.585Z,4.86
2019-03-18T07:25:50.646Z,4.92
2019-03-18T07:28:18.952Z,5.01
2019-03-18T07:30:47.185Z,5.10
2019-03-18T07:33:15.452Z,5.14
2019-03-18T07:35:43.730Z,5.24
2019-03-18T07:38:12.040Z,5.30
2019-03-18T07:40:40.293Z,5.39
2019-03-18T07:43:08.551Z,5.45
2019-03-18T07:45:36.821Z,5.56
2019-03-18T07:48:06.617Z,5.58
2019-03-18T07:50:35.962Z,5.67
2019-03-18T07:53:04.269Z,5.75
2019-03-18T07:55:32.554Z,5.85
2019-03-18T07:58:00.791Z,5.93
2019-03-18T08:00:29.094Z,6.12
2019-03-18T08:02:57.345Z,6.12
2019-03-18T08:05:25.657Z,6.23
2019-03-18T08:07:53.919Z,6.41
2019-03-18T08:10:22.280Z,6.41
2019-03-18T08:12:50.590Z,6.64
2019-03-18T08:15:18.947Z,6.64
2019-03-18T08:17:47.235Z,6.72
2019-03-18T08:20:16.261Z,6.78
2019-03-18T08:22:44.553Z,6.92
2019-03-18T08:25:13.090Z,7.03
2019-03-18T08:27:41.403Z,7.12
2019-03-18T08:30:19.406Z,7.22
2019-03-18T08:32:47.650Z,7.34
2019-03-18T08:35:15.970Z,7.37
2019-03-18T08:37:44.293Z,7.44
2019-03-18T08:40:12.788Z,7.58
2019-03-18T08:42:41.138Z,7.65
2019-03-18T08:45:13.437Z,7.67
2019-03-18T08:47:41.790Z,7.75
2019-03-18T08:50:12.491Z,7.86
2019-03-18T08:52:41.140Z,7.94
2019-03-18T08:55:12.984Z,8.00
2019-03-18T08:57:41.233Z,8.02
2019-03-18T09:00:14.423Z,8.03
2019-03-18T09:02:42.717Z,8.04
2019-03-18T09:05:10.981Z,8.08
2019-03-18T09:07:39.390Z,8.11
2019-03-18T09:10:15.532Z,8.15
2019-03-18T09:12:43.819Z,8.21
2019-03-18T09:15:12.446Z,8.24
2019-03-18T09:17:40.722Z,8.26
2019-03-18T09:20:19.130Z,8.23
2019-03-18T09:22:47.381Z,8.24
2019-03-18T09:25:15.712Z,8.27
2019-03-18T09:27:43.978Z,8.30
2019-03-18T09:30:17.654Z,8.34
2019-03-18T09:32:45.951Z,8.44
2019-03-18T09:35:14.181Z,8.35
2019-03-18T09:37:42.455Z,8.40
2019-03-18T09:40:12.300Z,8.51
2019-03-18T09:42:40.668Z,8.54
2019-03-18T09:45:17.939Z,8.61
2019-03-18T09:47:46.294Z,8.55
2019-03-18T09:50:14.789Z,8.57
2019-03-18T09:52:43.026Z,8.56
2019-03-18T09:55:11.465Z,8.52
2019-03-18T09:57:39.704Z,8.51
2019-03-18T10:00:13.425Z,8.52
2019-03-18T10:02:41.703Z,8.57
2019-03-18T10:05:09.988Z,8.60
2019-03-18T10:07:38.879Z,8.76
2019-03-18T10:10:11.460Z,8.98
2019-03-18T10:12:39.780Z,9.16
2019-03-18T10:15:13.152Z,9.16
2019-03-18T10:17:41.384Z,9.16
2019-03-18T10:20:09.808Z,9.07
2019-03-18T10:22:38.087Z,9.12
2019-03-18T10:25:07.665Z,9.06
2019-03-18T10:27:37.725Z,8.83
2019-03-18T10:30:09.227Z,7.95
2019-03-18T10:32:37.630Z,7.38
2019-03-18T10:35:06.306Z,7.03
2019-03-18T10:37:34.551Z,6.50
2019-03-18T10:40:02.930Z,6.34
2019-03-18T10:42:31.167Z,6.27
2019-03-18T10:44:59.556Z,5.75
2019-03-18T10:47:27.826Z,5.54
2019-03-18T10:49:56.129Z,5.46
2019-03-18T10:52:25.391Z,5.46
2019-03-18T10:54:53.674Z,5.97
2019-03-18T10:57:22.090Z,5.97
2019-03-18T10:59:50.435Z,6.32
2019-03-18T11:02:18.745Z,6.67
2019-03-18T11:04:47.021Z,7.00
2019-03-18T11:07:15.471Z,7.16
2019-03-18T11:09:43.715Z,7.87
2019-03-18T11:12:11.962Z,7.87
2019-03-18T11:14:40.225Z,8.25
2019-03-18T11:17:08.507Z,8.50
2019-03-18T11:19:36.773Z,8.80
2019-03-18T11:22:05.072Z,9.09
2019-03-18T11:24:33.321Z,9.41
2019-03-18T11:27:01.701Z,9.35
2019-03-18T11:29:29.982Z,9.29
2019-03-18T11:31:58.217Z,9.21
2019-03-18T11:34:26.485Z,9.22
2019-03-18T11:36:54.727Z,9.25
2019-03-18T11:39:23.048Z,9.30
2019-03-18T11:41:51.309Z,9.42
2019-03-18T11:44:19.607Z,9.83
2019-03-18T11:46:47.871Z,10.08
2019-03-18T11:49:16.124Z,10.03
2019-03-18T11:51:44.466Z,10.07
2019-03-18T11:54:12.759Z,10.24
2019-03-18T11:56:40.961Z,10.33
2019-03-18T11:59:09.224Z,10.19
2019-03-18T12:01:37.481Z,10.41
2019-03-18T12:04:05.829Z,10.49
2019-03-18T12:06:34.070Z,10.33
2019-03-18T12:09:02.399Z,10.20
2019-03-18T12:11:30.662Z,9.86
2019-03-18T12:13:58.901Z,9.76
2019-03-18T12:16:27.212Z,9.70
2019-03-18T12:18:55.447Z,9.56
2019-03-18T12:21:23.711Z,9.50
2019-03-18T12:23:52.011Z,9.66
2019-03-18T12:26:21.124Z,10.04
2019-03-18T12:28:49.403Z,10.48
2019-03-18T12:31:17.666Z,10.69
2019-03-18T12:33:45.918Z,10.73
2019-03-18T12:36:14.191Z,10.53
2019-03-18T12:38:42.431Z,10.15
2019-03-18T12:41:10.743Z,9.79
2019-03-18T12:43:39.074Z,9.49
2019-03-18T12:46:07.322Z,9.26
2019-03-18T12:48:35.643Z,9.11
2019-03-18T12:51:04.052Z,9.17
2019-03-18T12:53:32.289Z,9.20
2019-03-18T12:56:03.470Z,9.26
2019-03-18T12:58:31.737Z,9.56
2019-03-18T13:01:11.881Z,9.98
2019-03-18T13:03:30.010Z,10.32
2019-03-18T13:05:58.274Z,10.67
2019-03-18T13:08:26.681Z,10.89
2019-03-18T13:10:54.933Z,10.77
2019-03-18T13:13:23.170Z,10.51
2019-03-18T13:15:51.441Z,10.30
2019-03-18T13:18:19.844Z,10.04
2019-03-18T13:20:48.079Z,9.76
2019-03-18T13:23:16.332Z,9.60
2019-03-18T13:25:44.605Z,9.62
2019-03-18T13:28:12.871Z,9.93
2019-03-18T13:30:42.838Z,10.14
2019-03-18T13:33:11.097Z,10.15
2019-03-18T13:35:39.411Z,10.13
2019-03-18T13:38:07.696Z,10.02
2019-03-18T13:40:36.113Z,9.91
2019-03-18T13:43:04.358Z,9.67
2019-03-18T13:45:32.593Z,9.50
2019-03-18T13:48:01.441Z,9.34
2019-03-18T13:50:29.710Z,9.40
2019-03-18T13:52:57.981Z,9.45
2019-03-18T13:55:26.224Z,9.59
2019-03-18T13:57:54.535Z,9.95
2019-03-18T14:00:22.884Z,10.22
2019-03-18T14:02:51.146Z,10.30
2019-03-18T14:05:19.392Z,10.30
2019-03-18T14:07:59.681Z,10.15
2019-03-18T14:10:19.681Z,10.01
2019-03-18T14:12:47.942Z,9.89
2019-03-18T14:15:17.460Z,9.71
2019-03-18T14:17:45.847Z,9.48
2019-03-18T14:20:15.963Z,9.43
2019-03-18T14:22:44.221Z,9.36
2019-03-18T14:25:12.537Z,9.20
2019-03-18T14:27:40.910Z,9.22
2019-03-18T14:30:16.917Z,9.26
2019-03-18T14:32:45.214Z,9.45
2019-03-18T14:35:13.748Z,9.85
2019-03-18T14:37:43.013Z,10.19
2019-03-18T14:40:18.653Z,10.46
2019-03-18T14:42:46.897Z,10.63
2019-03-18T14:45:23.421Z,10.60
2019-03-18T14:47:51.704Z,10.45
2019-03-18T14:50:20.332Z,10.15
2019-03-18T14:52:48.659Z,9.86
2019-03-18T14:55:17.644Z,9.64
2019-03-18T14:57:46.688Z,9.60
2019-03-18T15:00:26.880Z,9.57
2019-03-18T15:02:55.192Z,9.82
2019-03-18T15:05:23.453Z,9.82
2019-03-18T15:07:51.699Z,9.62
2019-03-18T15:10:24.677Z,9.41
2019-03-18T15:12:52.935Z,9.41
2019-03-18T15:15:21.526Z,9.42
2019-03-18T15:17:49.794Z,9.35
2019-03-18T15:20:23.563Z,9.28
2019-03-18T15:22:51.815Z,9.19
2019-03-18T15:25:25.093Z,9.14
2019-03-18T15:27:53.743Z,9.19
2019-03-18T15:30:22.134Z,9.08
2019-03-18T15:32:50.388Z,9.01
2019-03-18T15:35:18.804Z,8.92
2019-03-18T15:37:47.160Z,8.87
2019-03-18T15:40:29.322Z,8.79
2019-03-18T15:42:57.616Z,8.78
2019-03-18T15:45:25.889Z,8.74
2019-03-18T15:47:54.133Z,8.76
2019-03-18T15:50:25.703Z,8.77
2019-03-18T15:52:53.993Z,8.62
2019-03-18T15:55:24.166Z,8.47
2019-03-18T15:57:52.320Z,8.38
2019-03-18T16:00:25.447Z,8.35
2019-03-18T16:02:53.731Z,8.31
2019-03-18T16:05:22.022Z,8.36
2019-03-18T16:07:50.327Z,8.36
2019-03-18T16:10:19.405Z,8.47
2019-03-18T16:12:48.237Z,8.49
2019-03-18T16:15:17.455Z,8.52
2019-03-18T16:17:45.728Z,8.54
2019-03-18T16:20:22.594Z,8.56
2019-03-18T16:22:50.887Z,8.51
2019-03-18T16:25:19.259Z,8.47
2019-03-18T16:27:47.536Z,8.45
2019-03-18T16:30:17.048Z,8.44
2019-03-18T16:32:45.336Z,8.37
2019-03-18T16:35:16.193Z,8.31
2019-03-18T16:37:44.793Z,8.35
2019-03-18T16:40:14.737Z,8.40
2019-03-18T16:42:43.257Z,8.40
2019-03-18T16:45:13.666Z,8.37
2019-03-18T16:47:41.910Z,8.29
2019-03-18T16:50:16.453Z,8.21
2019-03-18T16:52:44.698Z,8.00
2019-03-18T16:55:12.990Z,7.94
2019-03-18T16:57:41.230Z,7.95
2019-03-18T17:00:20.981Z,7.96
2019-03-18T17:02:49.240Z,7.86
2019-03-18T17:05:17.511Z,7.83
2019-03-18T17:07:45.773Z,7.79
2019-03-18T17:10:15.100Z,7.82
2019-03-18T17:12:43.544Z,7.81
2019-03-18T17:15:13.221Z,7.82
2019-03-18T17:17:41.465Z,7.83
2019-03-18T17:20:11.921Z,7.74
2019-03-18T17:22:48.875Z,7.64
2019-03-18T17:25:33.374Z,7.64
2019-03-18T17:28:01.884Z,7.64
2019-03-18T17:30:30.469Z,7.69
2019-03-18T17:32:58.740Z,7.56
2019-03-18T17:35:26.973Z,7.43
2019-03-18T17:37:55.240Z,7.38
2019-03-18T17:40:23.539Z,7.37
2019-03-18T17:42:51.804Z,7.32
2019-03-18T17:45:20.047Z,7.32
2019-03-18T17:47:48.355Z,7.29
2019-03-18T17:50:19.460Z,7.28
2019-03-18T17:53:00.898Z,7.15
2019-03-18T17:55:17.768Z,7.11
2019-03-18T17:57:46.079Z,7.05
2019-03-18T18:00:32.681Z,7.00
2019-03-18T18:03:01.139Z,6.94
2019-03-18T18:05:29.378Z,6.87
2019-03-18T18:07:57.730Z,6.83
2019-03-18T18:10:26.135Z,6.84
2019-03-18T18:12:54.497Z,6.76
2019-03-18T18:15:22.768Z,6.74
2019-03-18T18:17:51.082Z,6.70
2019-03-18T18:20:19.390Z,6.70
2019-03-18T18:22:47.643Z,6.63
2019-03-18T18:25:16.496Z,6.59
2019-03-18T18:27:44.765Z,6.59
2019-03-18T18:30:15.302Z,6.57
2019-03-18T18:32:43.570Z,6.58
2019-03-18T18:35:12.604Z,6.58
2019-03-18T18:37:40.992Z,6.52
2019-03-18T18:40:26.891Z,6.48
2019-03-18T18:42:55.190Z,6.45
2019-03-18T18:45:23.424Z,6.44
2019-03-18T18:47:51.718Z,6.43
2019-03-18T18:50:19.956Z,6.39
2019-03-18T18:52:48.262Z,6.39
2019-03-18T18:55:16.628Z,6.36
2019-03-18T18:57:44.915Z,6.31
2019-03-18T19:00:15.279Z,6.26
2019-03-18T19:02:43.574Z,6.23
2019-03-18T19:05:13.591Z,6.16
2019-03-18T19:07:41.984Z,6.12
2019-03-18T19:10:13.003Z,6.08
2019-03-18T19:12:41.350Z,6.05
2019-03-18T19:15:18.410Z,6.03
2019-03-18T19:17:46.690Z,5.97
2019-03-18T19:20:14.928Z,5.97
2019-03-18T19:22:43.228Z,5.95
2019-03-18T19:25:15.764Z,5.94
2019-03-18T19:27:44.104Z,5.94
2019-03-18T19:30:15.610Z,5.92
2019-03-18T19:32:43.942Z,5.84
2019-03-18T19:35:12.176Z,5.80
2019-03-18T19:37:40.425Z,5.83
2019-03-18T19:40:11.464Z,5.79
2019-03-18T19:42:39.823Z,5.67
2019-03-18T19:45:10.657Z,5.67
2019-03-18T19:47:38.918Z,5.67
2019-03-18T19:50:12.968Z,5.67
2019-03-18T19:52:41.248Z,5.66
2019-03-18T19:55:09.575Z,5.58
2019-03-18T19:57:37.876Z,5.51
2019-03-18T20:00:12.009Z,5.49
2019-03-18T20:02:40.287Z,5.39
2019-03-18T20:05:15.011Z,5.39
2019-03-18T20:07:38.551Z,5.33
2019-03-18T20:10:12.144Z,5.33
2019-03-18T20:12:40.419Z,5.27
2019-03-18T20:15:11.468Z,5.13
2019-03-18T20:17:39.790Z,5.18
2019-03-18T20:20:22.655Z,5.17
2019-03-18T20:22:50.996Z,5.17
2019-03-18T20:25:19.256Z,5.04
2019-03-18T20:27:47.507Z,4.98
2019-03-18T20:30:20.650Z,4.98
2019-03-18T20:32:48.963Z,4.90
2019-03-18T20:35:19.426Z,4.83
2019-03-18T20:37:47.693Z,4.83
2019-03-18T20:40:16.428Z,4.82
2019-03-18T20:42:44.873Z,4.78
2019-03-18T20:45:21.611Z,4.78
2019-03-18T20:47:49.961Z,4.74
2019-03-18T20:50:23.051Z,4.74
2019-03-18T20:52:51.362Z,4.76
2019-03-18T20:55:19.688Z,4.75
2019-03-18T20:57:48.009Z,4.78
2019-03-18T21:00:24.047Z,4.75
2019-03-18T21:02:53.053Z,4.75
2019-03-18T21:05:21.341Z,4.69
2019-03-18T21:07:49.686Z,4.63
2019-03-18T21:10:18.820Z,4.63
2019-03-18T21:12:47.197Z,4.59
2019-03-18T21:15:16.383Z,4.59
2019-03-18T21:17:44.667Z,4.58
2019-03-18T21:20:24.263Z,4.59
2019-03-18T21:22:53.320Z,4.55
2019-03-18T21:25:21.607Z,4.52
2019-03-18T21:27:49.939Z,4.47
2019-03-18T21:30:22.242Z,4.47
2019-03-18T21:32:50.655Z,4.41
2019-03-18T21:35:18.923Z,4.37
2019-03-18T21:37:47.314Z,4.34
2019-03-18T21:40:17.691Z,4.33
2019-03-18T21:42:45.936Z,4.27
2019-03-18T21:45:16.502Z,4.24
2019-03-18T21:47:44.820Z,4.23
2019-03-18T21:50:14.609Z,4.21
2019-03-18T21:52:43.019Z,4.19
2019-03-18T21:55:11.262Z,4.17
2019-03-18T21:57:39.549Z,4.13
2019-03-18T22:00:22.035Z,4.13
2019-03-18T22:02:50.267Z,4.11
2019-03-18T22:05:18.512Z,4.08
2019-03-18T22:07:46.857Z,4.07
2019-03-18T22:10:16.551Z,4.05
2019-03-18T22:12:44.850Z,4.04
2019-03-18T22:15:14.249Z,4.03
2019-03-18T22:17:42.516Z,4.02
2019-03-18T22:20:13.526Z,4.02
2019-03-18T22:22:41.780Z,4.01
2019-03-18T22:25:11.568Z,3.99
2019-03-18T22:27:40.003Z,3.98
2019-03-18T22:30:18.097Z,3.97
2019-03-18T22:32:46.576Z,3.94
2019-03-18T22:35:14.818Z,3.92
2019-03-18T22:37:43.087Z,3.91
2019-03-18T22:40:15.306Z,3.90
2019-03-18T22:42:45.860Z,3.87
2019-03-18T22:45:15.493Z,3.84
2019-03-18T22:47:43.735Z,3.82
2019-03-18T22:50:12.879Z,3.80
2019-03-18T22:52:41.151Z,3.78
2019-03-18T22:55:15.555Z,3.76
2019-03-18T22:57:43.805Z,3.74
2019-03-18T23:00:26.593Z,3.73
2019-03-18T23:02:54.910Z,3.73
2019-03-18T23:05:23.165Z,3.67
2019-03-18T23:07:52.272Z,3.66
2019-03-18T23:10:20.515Z,3.63
2019-03-18T23:12:48.811Z,3.63
2019-03-18T23:15:17.080Z,3.64
2019-03-18T23:17:45.560Z,3.57
2019-03-18T23:20:13.800Z,3.56
2019-03-18T23:22:42.778Z,3.56
2019-03-18T23:25:11.271Z,3.54
2019-03-18T23:27:39.547Z,3.54
2019-03-18T23:30:10.643Z,3.55
2019-03-18T23:32:38.940Z,3.53
2019-03-18T23:35:07.183Z,3.50
2019-03-18T23:37:35.604Z,3.48
2019-03-18T23:40:05.712Z,3.46
2019-03-18T23:42:34.035Z,3.46
2019-03-18T23:45:02.413Z,3.43
2019-03-18T23:47:30.655Z,3.41
2019-03-18T23:49:58.959Z,3.42
2019-03-18T23:52:27.246Z,3.39
2019-03-18T23:54:55.492Z,3.38
2019-03-18T23:57:23.766Z,3.38
2019-03-18T23:59:52.008Z,3.37
